Time;durP1;ratioP1;P1;durP2;ratioP2;P2;SDS_P1;SDS_P2;PMS_P1;PMS_P2;Temp;Humidity;BMP_temperature;BMP_pressure;BME280_temperature;BME280_humidity;BME280_pressure;Samples;Min_cycle;Max_cycle;Signal;HPM_P1;HPM_P2
2023/09/04 00:00:39;;;;;;;5.57;4.95;;;15.70;99.90;;;;;;5074433;28;20458;-73
2023/09/04 00:03:04;;;;;;;5.97;4.85;;;15.70;99.90;;;;;;5074434;28;20043;-73
2023/09/04 00:05:33;;;;;;;7.50;5.95;;;15.70;99.90;;;;;;5074473;28;20079;-73
2023/09/04 00:07:59;;;;;;;6.82;6.13;;;15.70;99.90;;;;;;5073072;28;20094;-73
2023/09/04 00:10:25;;;;;;;9.45;7.53;;;15.60;99.90;;;;;;5072412;28;20523;-73
2023/09/04 00:12:50;;;;;;;9.57;7.40;;;15.60;99.90;;;;;;5074139;28;20032;-73
2023/09/04 00:15:16;;;;;;;9.07;7.55;;;15.60;99.90;;;;;;5074157;28;20048;-73
2023/09/04 00:17:42;;;;;;;8.25;7.15;;;15.60;99.90;;;;;;5072915;28;20072;-74
2023/09/04 00:20:08;;;;;;;11.52;7.72;;;15.60;99.90;;;;;;5072877;28;20041;-73
2023/09/04 00:22:34;;;;;;;8.35;7.05;;;15.60;99.90;;;;;;5074130;28;20048;-73
2023/09/04 00:24:59;;;;;;;9.52;7.40;;;15.50;99.90;;;;;;5073012;28;20491;-73
2023/09/04 00:27:26;;;;;;;5.30;4.35;;;15.60;99.90;;;;;;5072760;28;20412;-73
2023/09/04 00:29:51;;;;;;;4.15;3.72;;;15.50;99.90;;;;;;5072721;28;20649;-73
2023/09/04 00:32:17;;;;;;;3.33;2.38;;;15.50;99.90;;;;;;5073074;28;20158;-73
2023/09/04 00:34:43;;;;;;;2.40;2.10;;;15.40;99.90;;;;;;5072469;28;20024;-73
2023/09/04 00:37:09;;;;;;;2.00;1.80;;;15.30;99.90;;;;;;5072435;28;20049;-74
2023/09/04 00:39:36;;;;;;;3.70;2.30;;;15.10;99.90;;;;;;5072485;28;20041;-73
2023/09/04 00:42:02;;;;;;;2.70;2.30;;;15.10;99.90;;;;;;5055973;28;20036;-73
2023/09/04 00:44:27;;;;;;;4.18;2.50;;;15.10;99.90;;;;;;5072836;28;20063;-74
2023/09/04 00:46:53;;;;;;;3.58;2.63;;;15.10;99.90;;;;;;5072513;28;20040;-73
2023/09/04 00:49:19;;;;;;;4.18;3.35;;;15.00;99.90;;;;;;5072189;28;20480;-73
2023/09/04 00:51:45;;;;;;;4.20;3.80;;;15.00;99.90;;;;;;5071552;28;20098;-73
2023/09/04 00:54:12;;;;;;;5.95;4.25;;;15.00;99.90;;;;;;5070257;28;20045;-73
2023/09/04 00:56:39;;;;;;;4.50;3.97;;;15.00;99.90;;;;;;5071957;28;20110;-73
2023/09/04 00:59:05;;;;;;;4.88;4.28;;;14.90;99.90;;;;;;5073281;28;20107;-73
2023/09/04 01:01:30;;;;;;;5.03;4.53;;;14.90;99.90;;;;;;5073437;28;20182;-73
2023/09/04 01:03:56;;;;;;;5.10;4.45;;;14.90;99.90;;;;;;5073125;28;20036;-73
2023/09/04 01:06:22;;;;;;;4.28;3.88;;;14.80;99.90;;;;;;5073349;28;20090;-73
2023/09/04 01:08:48;;;;;;;4.50;4.03;;;14.80;99.90;;;;;;5073083;28;20131;-73
2023/09/04 01:11:30;;;;;;;4.13;3.30;;;14.70;99.90;;;;;;5073383;28;20045;-73
2023/09/04 01:13:56;;;;;;;5.30;4.60;;;14.70;99.90;;;;;;5073287;28;20090;-73
2023/09/04 01:16:23;;;;;;;5.93;3.75;;;14.60;99.90;;;;;;5073125;28;20625;-73
2023/09/04 01:18:50;;;;;;;4.40;3.45;;;14.60;99.90;;;;;;5072767;28;20068;-73
2023/09/04 01:21:16;;;;;;;4.15;3.63;;;14.60;99.90;;;;;;5073273;28;20118;-73
2023/09/04 01:23:42;;;;;;;5.50;4.18;;;14.60;99.90;;;;;;5071979;28;20468;-73
2023/09/04 01:26:16;;;;;;;4.65;3.97;;;14.50;99.90;;;;;;5073075;28;20047;-73
2023/09/04 01:28:59;;;;;;;7.40;4.50;;;14.50;99.90;;;;;;5072755;28;20123;-73
2023/09/04 01:31:48;;;;;;;5.30;4.03;;;14.50;99.90;;;;;;5072837;28;20040;-73
2023/09/04 01:34:28;;;;;;;4.85;4.05;;;14.50;99.90;;;;;;5071658;28;20052;-73
2023/09/04 01:36:55;;;;;;;4.45;4.05;;;14.50;99.90;;;;;;5071370;28;20040;-73
2023/09/04 01:39:23;;;;;;;5.25;4.30;;;14.40;99.90;;;;;;5054375;28;20047;-73
2023/09/04 01:41:49;;;;;;;4.30;3.50;;;14.40;99.90;;;;;;5072660;28;20683;-73
2023/09/04 01:44:14;;;;;;;4.82;4.07;;;14.40;99.90;;;;;;5054678;28;20033;-73
2023/09/04 01:46:40;;;;;;;4.38;3.85;;;14.40;99.90;;;;;;5071238;28;20131;-73
2023/09/04 01:49:07;;;;;;;5.28;3.72;;;14.40;99.90;;;;;;5070958;28;20044;-73
2023/09/04 01:51:33;;;;;;;5.07;4.22;;;14.40;99.90;;;;;;5070817;28;20086;-74
2023/09/04 01:53:58;;;;;;;3.30;3.00;;;14.40;99.90;;;;;;5071167;28;20048;-73
2023/09/04 01:56:24;;;;;;;3.53;3.13;;;14.30;99.90;;;;;;5070915;28;20045;-73
2023/09/04 01:58:49;;;;;;;4.88;3.40;;;14.30;99.90;;;;;;5070835;28;20036;-73
2023/09/04 02:01:15;;;;;;;4.20;3.65;;;14.40;99.90;;;;;;5070986;28;20040;-73
2023/09/04 02:03:44;;;;;;;3.78;3.38;;;14.40;99.90;;;;;;5070731;28;20071;-73
2023/09/04 02:06:10;;;;;;;5.15;3.25;;;14.30;99.90;;;;;;5054070;28;20052;-73
2023/09/04 02:08:36;;;;;;;4.72;4.13;;;14.40;99.90;;;;;;5070669;28;20040;-73
2023/09/04 02:11:01;;;;;;;4.45;4.05;;;14.40;99.90;;;;;;5071089;28;20139;-73
2023/09/04 02:13:27;;;;;;;6.07;4.25;;;14.40;99.90;;;;;;5070789;28;20502;-73
2023/09/04 02:15:52;;;;;;;4.95;4.10;;;14.40;99.90;;;;;;5070719;28;20040;-73
2023/09/04 02:18:18;;;;;;;5.38;4.78;;;14.40;99.90;;;;;;5072009;28;20035;-73
2023/09/04 02:20:46;;;;;;;5.45;4.95;;;14.40;99.90;;;;;;5071958;28;20565;-73
2023/09/04 02:23:12;;;;;;;5.90;4.93;;;14.40;99.90;;;;;;5071828;28;20036;-73
2023/09/04 02:25:37;;;;;;;5.55;4.45;;;14.30;99.90;;;;;;5070622;28;20098;-73
2023/09/04 02:28:03;;;;;;;5.40;4.82;;;14.30;99.90;;;;;;5070642;28;20043;-73
2023/09/04 02:30:29;;;;;;;6.13;4.10;;;14.30;99.90;;;;;;5070701;28;20131;-73
2023/09/04 02:32:58;;;;;;;4.60;3.72;;;14.30;99.90;;;;;;5070471;28;20492;-73
2023/09/04 02:35:25;;;;;;;2.85;2.53;;;14.20;99.90;;;;;;5070509;28;20048;-74
2023/09/04 02:37:51;;;;;;;3.58;3.00;;;14.20;99.90;;;;;;5070479;28;20511;-74
2023/09/04 02:40:16;;;;;;;4.47;3.15;;;14.10;99.90;;;;;;5070567;28;20041;-73
2023/09/04 02:42:42;;;;;;;3.67;3.17;;;14.10;99.90;;;;;;5071679;28;20036;-74
2023/09/04 02:45:08;;;;;;;3.47;2.97;;;14.10;99.90;;;;;;5070426;28;20038;-73
2023/09/04 02:47:37;;;;;;;2.60;2.40;;;14.10;99.90;;;;;;5071617;28;20063;-73
2023/09/04 02:50:03;;;;;;;3.22;2.72;;;14.10;99.90;;;;;;5070345;28;20041;-73
2023/09/04 02:52:29;;;;;;;5.03;3.03;;;14.10;99.90;;;;;;5071507;28;20037;-74
2023/09/04 02:54:56;;;;;;;3.03;2.38;;;14.00;99.90;;;;;;5071886;28;20036;-73
2023/09/04 02:57:22;;;;;;;4.25;2.05;;;13.90;99.90;;;;;;5071483;28;20043;-73
2023/09/04 02:59:48;;;;;;;2.67;1.90;;;13.90;99.90;;;;;;5071548;28;20040;-73
2023/09/04 03:02:14;;;;;;;2.72;2.03;;;13.90;99.90;;;;;;5070232;28;20045;-73
2023/09/04 03:04:40;;;;;;;3.83;2.08;;;13.80;99.90;;;;;;5071303;28;20033;-73
2023/09/04 03:07:05;;;;;;;2.25;2.00;;;13.80;99.90;;;;;;5071067;28;20430;-73
2023/09/04 03:09:31;;;;;;;2.15;1.45;;;13.80;99.90;;;;;;5071312;28;20040;-73
2023/09/04 03:12:01;;;;;;;2.63;1.90;;;13.80;99.90;;;;;;5070372;28;20048;-73
2023/09/04 03:14:27;;;;;;;2.47;2.00;;;13.80;99.90;;;;;;5070361;28;20134;-73
2023/09/04 03:16:52;;;;;;;1.70;1.50;;;13.80;99.90;;;;;;5072865;28;20032;-72
2023/09/04 03:19:18;;;;;;;2.13;1.80;;;13.70;99.90;;;;;;5073735;28;20046;-73
2023/09/04 03:21:43;;;;;;;2.17;1.98;;;13.70;99.90;;;;;;5074386;28;20029;-73
2023/09/04 03:24:09;;;;;;;5.30;3.75;;;13.70;99.90;;;;;;5074014;28;20066;-73
2023/09/04 03:26:35;;;;;;;5.63;3.30;;;13.70;99.90;;;;;;5075145;28;20044;-73
2023/09/04 03:29:01;;;;;;;5.75;3.13;;;13.70;99.90;;;;;;5073801;28;20080;-73
2023/09/04 03:31:26;;;;;;;5.38;4.18;;;13.70;99.90;;;;;;5075230;28;20048;-73
2023/09/04 03:33:53;;;;;;;6.15;4.82;;;13.70;99.90;;;;;;5075019;28;20036;-73
2023/09/04 03:36:19;;;;;;;6.28;4.97;;;13.70;99.90;;;;;;5073824;28;20158;-73
2023/09/04 03:38:44;;;;;;;7.68;5.13;;;13.70;99.90;;;;;;5073548;28;20512;-73
2023/09/04 03:41:10;;;;;;;7.18;5.32;;;13.70;99.90;;;;;;5073955;28;20175;-75
2023/09/04 03:43:35;;;;;;;4.63;3.72;;;13.70;99.90;;;;;;5073391;28;20511;-73
2023/09/04 03:46:01;;;;;;;7.65;4.07;;;13.70;99.90;;;;;;5073501;28;20079;-74
2023/09/04 03:48:27;;;;;;;6.80;5.07;;;13.70;99.90;;;;;;5073484;28;20048;-73
2023/09/04 03:50:52;;;;;;;7.97;4.90;;;13.70;99.90;;;;;;5073305;28;20033;-73
2023/09/04 03:53:18;;;;;;;6.10;4.90;;;13.70;99.90;;;;;;5073611;28;20107;-74
2023/09/04 03:55:43;;;;;;;5.25;4.20;;;13.70;99.90;;;;;;5073300;28;20036;-73
2023/09/04 03:58:09;;;;;;;8.10;4.70;;;13.60;99.90;;;;;;5073255;28;20472;-73
2023/09/04 04:00:34;;;;;;;6.53;4.68;;;13.60;99.90;;;;;;5073061;28;20037;-73
2023/09/04 04:03:00;;;;;;;5.85;4.88;;;13.60;99.90;;;;;;5073117;28;20033;-73
2023/09/04 04:05:26;;;;;;;6.38;4.55;;;13.60;99.90;;;;;;5073222;28;20117;-73
2023/09/04 04:07:52;;;;;;;9.25;5.10;;;13.60;99.90;;;;;;5073138;28;20115;-73
2023/09/04 04:10:18;;;;;;;7.30;5.22;;;13.60;99.90;;;;;;5073042;28;20040;-73
2023/09/04 04:12:44;;;;;;;6.78;5.18;;;13.60;99.90;;;;;;5073309;28;20098;-73
2023/09/04 04:15:11;;;;;;;4.65;4.07;;;13.60;99.90;;;;;;5073212;28;20111;-73
2023/09/04 04:17:38;;;;;;;7.28;4.38;;;13.60;99.90;;;;;;5073003;28;20040;-74
2023/09/04 04:20:09;;;;;;;5.30;4.20;;;13.60;99.90;;;;;;5072655;28;20090;-73
2023/09/04 04:22:35;;;;;;;6.95;4.30;;;13.50;99.90;;;;;;5072945;28;20041;-74
2023/09/04 04:25:00;;;;;;;6.45;4.93;;;13.60;99.90;;;;;;5072960;28;20037;-74
2023/09/04 04:27:26;;;;;;;7.63;5.95;;;13.60;99.90;;;;;;5073672;28;20037;-74
2023/09/04 04:29:54;;;;;;;16.45;6.00;;;13.50;99.90;;;;;;5056127;28;20047;-75
2023/09/04 04:32:20;;;;;;;9.05;7.00;;;13.60;99.90;;;;;;5072640;28;20166;-74
2023/09/04 04:34:46;;;;;;;8.18;6.25;;;13.50;99.90;;;;;;5072663;28;20127;-73
2023/09/04 04:37:11;;;;;;;7.53;6.03;;;13.60;99.90;;;;;;5072268;28;20048;-74
2023/09/04 04:39:37;;;;;;;9.25;6.72;;;13.60;99.90;;;;;;5073536;28;20041;-74
2023/09/04 04:42:03;;;;;;;9.88;7.47;;;13.50;99.90;;;;;;5072395;28;20054;-74
2023/09/04 04:44:28;;;;;;;9.68;6.50;;;13.60;99.90;;;;;;5073546;28;20124;-73
2023/09/04 04:46:54;;;;;;;8.77;6.82;;;13.60;99.90;;;;;;5073580;28;20127;-74
2023/09/04 04:49:21;;;;;;;8.43;6.97;;;13.50;99.90;;;;;;5071997;28;20182;-75
2023/09/04 04:51:47;;;;;;;12.13;8.50;;;13.60;99.90;;;;;;5073947;28;20051;-74
2023/09/04 04:54:13;;;;;;;14.68;8.57;;;13.60;99.90;;;;;;5080145;28;20107;-73
2023/09/04 04:56:41;;;;;;;14.13;8.55;;;13.60;99.90;;;;;;5092954;28;20044;-73
2023/09/04 04:59:08;;;;;;;17.95;8.45;;;13.60;99.90;;;;;;5092201;28;20434;-73
2023/09/04 05:01:34;;;;;;;10.82;8.18;;;13.60;99.90;;;;;;5093124;28;20060;-73
2023/09/04 05:04:00;;;;;;;10.35;7.28;;;13.60;99.90;;;;;;5093412;28;20051;-73
2023/09/04 05:06:25;;;;;;;13.23;8.82;;;13.60;99.90;;;;;;5092370;28;20487;-73
2023/09/04 05:08:51;;;;;;;8.73;7.30;;;13.70;99.90;;;;;;5093341;28;20032;-73
2023/09/04 05:11:17;;;;;;;10.38;8.25;;;13.70;99.90;;;;;;5075286;28;20044;-73
2023/09/04 05:13:43;;;;;;;10.80;8.20;;;13.70;99.90;;;;;;5093469;28;20455;-72
2023/09/04 05:16:08;;;;;;;13.60;8.43;;;13.70;99.90;;;;;;5093215;28;20040;-72
2023/09/04 05:18:34;;;;;;;12.85;7.25;;;13.80;99.90;;;;;;5092054;28;20035;-72
2023/09/04 05:21:03;;;;;;;10.80;7.22;;;13.80;99.90;;;;;;5093592;28;20500;-72
2023/09/04 05:23:28;;;;;;;12.52;9.10;;;13.90;99.90;;;;;;5093356;28;20039;-72
2023/09/04 05:25:54;;;;;;;10.20;7.65;;;14.00;99.90;;;;;;5093300;28;20036;-72
2023/09/04 05:28:20;;;;;;;9.50;6.93;;;14.10;99.90;;;;;;5091731;28;20610;-73
2023/09/04 05:30:45;;;;;;;9.30;7.10;;;14.20;99.90;;;;;;5091601;28;20043;-74
2023/09/04 05:33:11;;;;;;;11.38;8.23;;;14.30;99.90;;;;;;5091356;28;20032;-73
2023/09/04 05:35:37;;;;;;;9.98;7.90;;;14.40;99.90;;;;;;5091282;28;20032;-73
2023/09/04 05:38:03;;;;;;;13.98;8.68;;;14.50;99.90;;;;;;5092961;28;20032;-73
2023/09/04 05:40:28;;;;;;;8.82;7.50;;;14.60;99.90;;;;;;5092063;28;20047;-73
2023/09/04 05:42:54;;;;;;;10.63;8.38;;;14.70;99.90;;;;;;5076338;28;20485;-73
2023/09/04 05:45:21;;;;;;;11.18;7.97;;;14.80;99.90;;;;;;5072422;28;20066;-73
2023/09/04 05:47:46;;;;;;;9.60;7.65;;;14.90;99.90;;;;;;5070360;28;20609;-73
2023/09/04 05:50:13;;;;;;;10.05;7.70;;;15.00;99.90;;;;;;5072144;28;20119;-73
2023/09/04 05:52:39;;;;;;;14.07;9.52;;;15.10;99.90;;;;;;5070811;28;20041;-73
2023/09/04 05:55:06;;;;;;;15.15;9.63;;;15.10;99.90;;;;;;5072441;28;20086;-73
2023/09/04 05:57:32;;;;;;;14.90;10.20;;;15.10;99.90;;;;;;5071034;28;20430;-73
2023/09/04 05:59:58;;;;;;;14.30;10.35;;;15.30;99.90;;;;;;5071475;28;20037;-73
2023/09/04 06:02:24;;;;;;;11.57;10.15;;;15.40;99.90;;;;;;5072349;28;20039;-73
2023/09/04 06:04:50;;;;;;;13.43;11.10;;;15.60;99.90;;;;;;5070843;28;20075;-73
2023/09/04 06:07:15;;;;;;;12.43;11.13;;;15.80;99.90;;;;;;5072143;28;20077;-73
2023/09/04 06:09:42;;;;;;;15.27;10.23;;;16.00;99.90;;;;;;5072116;28;20051;-73
2023/09/04 06:12:11;;;;;;;13.77;11.13;;;16.20;99.90;;;;;;5070892;28;20545;-73
2023/09/04 06:14:37;;;;;;;14.00;10.10;;;16.40;99.90;;;;;;5071891;28;20040;-73
2023/09/04 06:17:03;;;;;;;12.73;10.30;;;16.60;99.90;;;;;;5070683;28;20081;-73
2023/09/04 06:19:29;;;;;;;13.32;9.57;;;16.80;99.90;;;;;;5070731;28;20036;-73
2023/09/04 06:21:55;;;;;;;13.40;9.43;;;16.90;99.90;;;;;;5054376;28;20036;-73
2023/09/04 06:24:20;;;;;;;13.00;9.70;;;17.10;99.90;;;;;;5070625;28;20531;-73
2023/09/04 06:26:46;;;;;;;12.32;9.50;;;17.30;99.90;;;;;;5071907;28;20040;-73
2023/09/04 06:29:12;;;;;;;12.85;9.20;;;17.40;99.90;;;;;;5071541;28;20110;-73
2023/09/04 06:31:38;;;;;;;10.80;8.65;;;17.50;99.90;;;;;;5072114;28;20036;-73
2023/09/04 06:34:04;;;;;;;10.35;8.55;;;17.60;99.90;;;;;;5071899;28;20032;-73
2023/09/04 06:36:30;;;;;;;10.82;8.95;;;17.80;99.90;;;;;;5070437;28;20051;-73
2023/09/04 06:38:55;;;;;;;12.57;8.68;;;18.00;99.90;;;;;;5070238;28;20470;-73
2023/09/04 06:41:21;;;;;;;10.95;8.93;;;18.10;99.90;;;;;;5070401;28;20040;-73
2023/09/04 06:43:47;;;;;;;12.25;8.70;;;18.20;99.90;;;;;;5070468;28;20032;-73
2023/09/04 06:46:13;;;;;;;11.88;8.48;;;18.30;99.90;;;;;;5071936;28;20146;-73
2023/09/04 06:48:39;;;;;;;13.00;9.20;;;18.40;99.90;;;;;;5070186;28;20496;-73
2023/09/04 06:51:05;;;;;;;16.25;9.45;;;18.60;99.90;;;;;;5071761;28;20044;-73
2023/09/04 06:53:30;;;;;;;11.30;8.40;;;18.70;99.90;;;;;;5070304;28;20516;-73
2023/09/04 06:55:56;;;;;;;13.75;8.48;;;18.70;99.90;;;;;;5070324;28;20044;-73
2023/09/04 06:58:22;;;;;;;11.05;9.32;;;18.90;99.90;;;;;;5071286;28;20519;-73
2023/09/04 07:00:48;;;;;;;10.85;8.55;;;18.90;99.90;;;;;;5069409;28;20666;-73
2023/09/04 07:03:13;;;;;;;10.32;8.25;;;19.10;99.90;;;;;;5071098;28;20048;-73
2023/09/04 07:05:39;;;;;;;9.77;7.72;;;19.30;99.90;;;;;;5071475;28;20040;-73
2023/09/04 07:08:05;;;;;;;9.93;8.25;;;19.40;99.90;;;;;;5070356;28;20049;-73
2023/09/04 07:10:31;;;;;;;12.20;8.15;;;19.60;99.90;;;;;;5071375;28;20488;-73
2023/09/04 07:12:59;;;;;;;10.88;8.05;;;19.70;99.90;;;;;;5069932;28;20124;-73
2023/09/04 07:15:25;;;;;;;10.75;8.77;;;19.70;99.90;;;;;;5070136;28;20071;-73
2023/09/04 07:17:51;;;;;;;10.55;8.00;;;19.80;99.90;;;;;;5071280;28;20094;-73
2023/09/04 07:20:17;;;;;;;8.80;7.88;;;19.90;99.90;;;;;;5069858;28;20048;-74
2023/09/04 07:22:42;;;;;;;15.30;9.10;;;20.00;99.90;;;;;;5071315;28;20453;-74
2023/09/04 07:25:09;;;;;;;10.63;8.60;;;20.00;99.90;;;;;;5070105;28;20068;-73
2023/09/04 07:27:35;;;;;;;8.80;7.43;;;20.00;99.90;;;;;;5069966;28;20048;-73
2023/09/04 07:30:00;;;;;;;10.73;8.02;;;20.10;99.90;;;;;;5070915;28;20530;-73
2023/09/04 07:32:26;;;;;;;10.35;7.90;;;20.30;99.90;;;;;;5069851;28;20047;-73
2023/09/04 07:34:56;;;;;;;10.40;7.60;;;20.40;99.90;;;;;;5070033;28;20049;-72
2023/09/04 07:37:28;;;;;;;8.55;7.65;;;20.40;99.90;;;;;;5071055;28;20048;-72
2023/09/04 07:39:54;;;;;;;8.95;8.02;;;20.50;99.90;;;;;;5071059;28;20032;-74
2023/09/04 07:42:20;;;;;;;10.68;8.88;;;20.60;99.90;;;;;;5069937;28;20037;-74
2023/09/04 07:44:46;;;;;;;8.95;8.05;;;20.80;99.90;;;;;;5071327;28;20115;-73
2023/09/04 07:47:12;;;;;;;13.30;9.10;;;20.90;99.90;;;;;;5071097;28;20630;-73
2023/09/04 07:49:37;;;;;;;9.68;8.25;;;21.20;99.90;;;;;;5071017;28;20087;-73
2023/09/04 07:52:03;;;;;;;9.98;8.40;;;21.20;99.90;;;;;;5071084;28;20047;-73
2023/09/04 07:54:29;;;;;;;9.38;8.43;;;21.30;99.90;;;;;;5070920;28;20040;-74
2023/09/04 07:56:54;;;;;;;8.70;7.85;;;21.50;99.90;;;;;;5070981;28;20079;-74
2023/09/04 07:59:20;;;;;;;8.48;7.60;;;21.60;99.90;;;;;;5069560;28;20048;-73
2023/09/04 08:01:46;;;;;;;7.65;6.85;;;21.70;99.90;;;;;;5086837;28;20039;-73
2023/09/04 08:04:13;;;;;;;7.50;6.50;;;21.90;99.90;;;;;;5072855;28;20065;-73
2023/09/04 08:06:39;;;;;;;7.88;5.82;;;21.90;99.90;;;;;;5056656;28;20051;-73
2023/09/04 08:09:04;;;;;;;7.28;5.55;;;22.00;99.90;;;;;;5072853;28;20033;-73
2023/09/04 08:11:30;;;;;;;5.90;5.18;;;21.90;99.90;;;;;;5073218;28;20629;-74
2023/09/04 08:13:56;;;;;;;6.30;5.18;;;22.00;99.90;;;;;;5073363;28;20040;-73
2023/09/04 08:16:22;;;;;;;5.72;5.05;;;22.10;99.90;;;;;;5072926;28;20039;-74
2023/09/04 08:18:47;;;;;;;5.50;4.85;;;22.20;99.90;;;;;;5074106;28;20029;-74
2023/09/04 08:21:13;;;;;;;5.95;4.82;;;22.00;99.90;;;;;;5072887;28;20464;-74
2023/09/04 08:23:38;;;;;;;5.80;4.28;;;22.20;99.90;;;;;;5072994;28;20044;-74
2023/09/04 08:26:04;;;;;;;4.97;4.45;;;22.30;99.90;;;;;;5074383;28;20124;-74
2023/09/04 08:28:30;;;;;;;6.20;4.88;;;22.40;99.90;;;;;;5074301;28;20044;-74
2023/09/04 08:30:56;;;;;;;7.60;4.20;;;22.50;99.90;;;;;;5074107;28;20470;-74
2023/09/04 08:33:21;;;;;;;4.53;4.13;;;22.40;99.90;;;;;;5072737;28;20115;-74
2023/09/04 08:35:47;;;;;;;4.10;3.70;;;22.40;99.90;;;;;;5073928;28;20048;-74
2023/09/04 08:38:13;;;;;;;5.38;3.92;;;22.30;99.90;;;;;;5073830;28;20051;-74
2023/09/04 08:40:41;;;;;;;5.88;3.20;;;22.40;99.90;;;;;;5073710;28;20545;-73
2023/09/04 08:43:08;;;;;;;4.28;3.45;;;22.40;99.90;;;;;;5073959;28;20041;-73
2023/09/04 08:45:36;;;;;;;4.88;3.38;;;22.30;99.90;;;;;;5073981;28;20408;-73
2023/09/04 08:48:04;;;;;;;4.72;3.65;;;22.30;99.90;;;;;;5072481;28;20051;-74
2023/09/04 08:50:31;;;;;;;4.45;3.42;;;22.20;99.90;;;;;;5072300;28;20032;-73
2023/09/04 08:52:56;;;;;;;4.47;3.15;;;22.20;99.90;;;;;;5072257;28;20472;-73
2023/09/04 08:55:22;;;;;;;5.45;3.35;;;22.30;99.90;;;;;;5072271;28;20125;-73
2023/09/04 08:57:47;;;;;;;3.38;3.08;;;22.20;99.90;;;;;;5072212;28;20147;-73
2023/09/04 09:00:15;;;;;;;3.90;3.03;;;22.40;99.90;;;;;;5072295;28;20048;-73
2023/09/04 09:02:42;;;;;;;3.80;3.00;;;22.30;99.90;;;;;;5072068;28;20045;-73
2023/09/04 09:05:12;;;;;;;3.70;3.30;;;22.50;99.90;;;;;;5073575;28;20036;-73
2023/09/04 09:07:40;;;;;;;3.10;2.80;;;22.40;99.90;;;;;;5072040;28;20052;-73
2023/09/04 09:10:08;;;;;;;4.38;3.25;;;22.50;99.90;;;;;;5073379;28;20075;-73
2023/09/04 09:12:34;;;;;;;4.97;3.22;;;22.50;99.90;;;;;;5073399;28;20462;-73
2023/09/04 09:14:59;;;;;;;5.00;3.40;;;22.50;99.90;;;;;;5072146;28;20040;-73
2023/09/04 09:17:25;;;;;;;4.15;3.30;;;22.50;99.90;;;;;;5073113;28;20044;-73
2023/09/04 09:19:51;;;;;;;6.65;3.28;;;22.50;99.90;;;;;;5068304;28;20116;-73
2023/09/04 09:22:19;;;;;;;3.50;3.20;;;22.60;99.90;;;;;;5071709;28;20404;-73
2023/09/04 09:24:51;;;;;;;5.03;3.85;;;22.50;99.80;;;;;;5071977;28;20033;-74
2023/09/04 09:27:18;;;;;;;4.05;3.53;;;22.40;99.30;;;;;;5072963;28;20450;-73
2023/09/04 09:29:45;;;;;;;5.25;3.80;;;22.40;99.20;;;;;;5071784;28;20040;-73
2023/09/04 09:32:11;;;;;;;4.05;3.75;;;22.40;99.40;;;;;;5071664;28;20051;-73
2023/09/04 09:34:38;;;;;;;4.90;3.75;;;22.40;99.50;;;;;;5071316;28;20041;-73
2023/09/04 09:37:03;;;;;;;5.63;3.47;;;22.50;99.40;;;;;;5071433;28;20055;-73
2023/09/04 09:39:31;;;;;;;5.07;3.45;;;22.50;99.80;;;;;;5071239;28;20415;-73
2023/09/04 09:42:00;;;;;;;4.68;3.92;;;22.60;99.80;;;;;;5071373;28;20037;-74
2023/09/04 09:44:33;;;;;;;5.90;3.20;;;22.70;99.80;;;;;;5071264;28;20040;-74
2023/09/04 09:46:59;;;;;;;4.10;3.40;;;22.70;99.00;;;;;;5071529;28;20041;-73
2023/09/04 09:49:25;;;;;;;5.22;3.50;;;22.70;99.70;;;;;;5071071;28;20123;-73
2023/09/04 09:51:53;;;;;;;3.88;2.97;;;22.70;99.90;;;;;;5072715;28;20044;-73
2023/09/04 09:54:45;;;;;;;3.92;3.47;;;22.80;99.90;;;;;;5071186;28;20044;-73
2023/09/04 09:57:13;;;;;;;5.57;3.10;;;22.80;99.30;;;;;;5072467;28;20546;-73
2023/09/04 09:59:48;;;;;;;4.43;2.90;;;22.80;99.90;;;;;;5070644;28;20513;-73
2023/09/04 10:02:21;;;;;;;4.85;3.13;;;22.80;99.90;;;;;;5072319;28;20499;-73
2023/09/04 10:04:47;;;;;;;5.00;3.28;;;22.80;99.50;;;;;;5072207;28;20036;-73
2023/09/04 10:07:19;;;;;;;4.40;3.80;;;22.80;99.60;;;;;;5070829;28;20048;-72
2023/09/04 10:09:45;;;;;;;4.65;2.88;;;22.70;98.90;;;;;;5072109;28;20044;-72
2023/09/04 10:12:31;;;;;;;5.47;3.78;;;22.70;99.50;;;;;;5072311;28;20102;-72
2023/09/04 10:14:59;;;;;;;5.90;3.08;;;22.80;99.90;;;;;;5072390;28;20040;-72
2023/09/04 10:17:35;;;;;;;3.58;2.83;;;22.70;99.40;;;;;;5070599;28;20063;-72
2023/09/04 10:20:04;;;;;;;4.00;3.03;;;22.80;99.50;;;;;;5071899;28;20489;-72
2023/09/04 10:23:00;;;;;;;5.57;3.80;;;22.80;99.90;;;;;;5071750;28;20063;-73
2023/09/04 10:25:37;;;;;;;3.50;2.42;;;22.80;98.70;;;;;;5068830;28;20486;-72
2023/09/04 10:28:11;;;;;;;4.18;3.00;;;22.90;99.60;;;;;;5070878;28;20044;-72
2023/09/04 10:30:40;;;;;;;4.63;3.03;;;22.90;98.70;;;;;;5071834;28;20068;-72
2023/09/04 10:33:06;;;;;;;2.40;2.10;;;22.90;98.60;;;;;;5070513;28;20028;-72
2023/09/04 10:35:32;;;;;;;4.15;2.80;;;22.90;98.50;;;;;;5070497;28;20097;-72
2023/09/04 10:37:59;;;;;;;3.80;2.65;;;22.90;98.40;;;;;;5070542;28;20048;-72
2023/09/04 10:40:26;;;;;;;5.07;2.90;;;22.90;98.30;;;;;;5071720;28;20090;-71
2023/09/04 10:42:51;;;;;;;3.60;2.42;;;22.90;98.60;;;;;;5070438;28;20495;-72
2023/09/04 10:45:20;;;;;;;2.90;2.17;;;22.90;98.50;;;;;;5070437;28;20044;-72
2023/09/04 10:47:48;;;;;;;3.28;2.35;;;23.00;98.60;;;;;;5071590;28;20040;-71
2023/09/04 10:50:38;;;;;;;3.10;2.35;;;23.10;98.70;;;;;;5071642;28;20078;-72
2023/09/04 10:53:05;;;;;;;4.20;2.20;;;23.00;98.20;;;;;;5061406;28;20044;-72
2023/09/04 10:55:38;;;;;;;2.58;2.08;;;22.90;98.40;;;;;;5071553;28;20116;-71
2023/09/04 10:58:04;;;;;;;;;;;23.00;97.50;;;;;;5071738;28;20041;-70
2023/09/04 11:00:41;;;;;;;4.25;2.40;;;23.00;97.20;;;;;;5071414;28;19916;-71
2023/09/04 11:03:22;;;;;;;3.72;2.20;;;23.30;97.20;;;;;;5094272;22;20059;-67
2023/09/04 11:06:05;;;;;;;3.10;2.15;;;23.50;97.80;;;;;;5050454;28;20040;-67
2023/09/04 11:08:35;;;;;;;2.80;2.28;;;23.50;97.90;;;;;;5051198;28;20037;-67
2023/09/04 11:11:02;;;;;;;3.50;2.00;;;23.50;96.80;;;;;;5051100;28;20084;-67
2023/09/04 11:13:27;;;;;;;5.80;2.53;;;23.50;96.80;;;;;;5051172;28;20045;-67
2023/09/04 11:15:57;;;;;;;2.90;2.30;;;23.40;96.80;;;;;;5051588;28;20079;-67
2023/09/04 11:18:28;;;;;;;5.68;2.50;;;23.40;96.90;;;;;;5051389;28;20449;-67
2023/09/04 11:20:55;;;;;;;5.60;3.10;;;23.30;97.00;;;;;;5051249;28;20031;-67
2023/09/04 11:23:24;;;;;;;3.00;2.40;;;23.30;97.10;;;;;;5033398;28;20102;-67
2023/09/04 11:25:52;;;;;;;3.75;2.50;;;23.40;96.80;;;;;;5051283;28;20087;-67
2023/09/04 11:28:22;;;;;;;4.00;1.77;;;23.40;96.50;;;;;;5050084;28;20077;-67
2023/09/04 11:30:49;;;;;;;3.20;2.10;;;23.40;96.60;;;;;;5051236;28;20064;-67
2023/09/04 11:33:15;;;;;;;2.70;2.10;;;23.50;97.10;;;;;;5051327;28;20041;-67
2023/09/04 11:35:41;;;;;;;3.25;2.10;;;23.50;96.70;;;;;;5051153;28;20040;-67
2023/09/04 11:38:26;;;;;;;2.85;2.00;;;23.60;96.30;;;;;;5053062;28;20044;-67
2023/09/04 11:40:52;;;;;;;3.35;1.83;;;23.50;94.60;;;;;;5056090;28;20037;-67
2023/09/04 11:43:17;;;;;;;3.50;1.83;;;23.60;95.60;;;;;;5064522;28;20040;-67
2023/09/04 11:45:43;;;;;;;3.28;2.05;;;23.60;95.70;;;;;;5063741;28;20032;-67
2023/09/04 11:48:09;;;;;;;2.80;2.05;;;23.70;96.00;;;;;;5060813;28;20090;-68
2023/09/04 11:50:35;;;;;;;2.13;1.40;;;23.70;95.60;;;;;;5064538;28;20056;-68
2023/09/04 11:53:01;;;;;;;2.33;2.13;;;23.70;95.00;;;;;;5065013;28;20044;-68
2023/09/04 11:55:27;;;;;;;3.92;2.20;;;23.70;95.20;;;;;;5063123;28;20029;-68
2023/09/04 11:57:53;;;;;;;2.53;1.83;;;23.60;95.60;;;;;;5062984;28;20033;-68
2023/09/04 12:00:19;;;;;;;2.50;1.75;;;23.50;96.30;;;;;;5065496;28;20083;-68
2023/09/04 12:02:44;;;;;;;2.28;1.58;;;23.60;96.60;;;;;;5065869;28;20039;-68
2023/09/04 12:05:13;;;;;;;2.45;2.00;;;23.60;96.60;;;;;;5074462;28;20036;-68
2023/09/04 12:07:40;;;;;;;3.33;2.08;;;23.70;96.40;;;;;;5074189;28;20047;-68
2023/09/04 12:10:09;;;;;;;2.55;1.83;;;23.50;96.10;;;;;;5074455;28;20045;-67
2023/09/04 12:12:36;;;;;;;4.05;1.90;;;23.50;95.90;;;;;;5059941;28;20072;-68
2023/09/04 12:15:02;;;;;;;5.03;1.90;;;23.60;96.20;;;;;;5054418;28;20072;-67
2023/09/04 12:17:29;;;;;;;4.57;1.70;;;23.60;95.80;;;;;;5053958;28;20505;-67
2023/09/04 12:19:55;;;;;;;3.05;1.65;;;23.70;95.10;;;;;;5056477;28;20446;-67
2023/09/04 12:22:21;;;;;;;6.00;2.25;;;23.70;94.10;;;;;;5064736;28;20044;-67
2023/09/04 12:25:00;;;;;;;2.50;1.70;;;23.70;93.80;;;;;;5070361;28;20041;-68
2023/09/04 12:27:28;;;;;;;2.95;1.55;;;23.70;93.50;;;;;;5064861;28;20555;-67
2023/09/04 12:29:53;;;;;;;3.97;2.00;;;23.70;94.30;;;;;;5065780;28;20059;-67
2023/09/04 12:32:23;;;;;;;3.92;1.75;;;23.70;94.20;;;;;;5056415;28;20045;-67
2023/09/04 12:34:50;;;;;;;3.30;1.73;;;23.80;93.50;;;;;;5053307;28;20072;-67
2023/09/04 12:37:18;;;;;;;2.75;1.77;;;23.80;93.20;;;;;;5053600;28;20037;-68
2023/09/04 12:39:43;;;;;;;4.28;1.70;;;23.90;93.00;;;;;;5052849;28;20063;-67
2023/09/04 12:42:09;;;;;;;4.03;1.55;;;23.80;92.70;;;;;;5054122;28;20497;-67
2023/09/04 12:44:35;;;;;;;2.33;1.48;;;23.80;92.10;;;;;;5053911;28;20246;-67